sensor_id;sensor_type;location;lat;lon;timestamp;P1;durP1;ratioP1;P2;durP2;ratioP2
70683;SDS011;58263;48.146;11.440;2024-03-25T00:00:28;1.90;;;1.52;;
70683;SDS011;58263;48.146;11.440;2024-03-25T00:02:54;1.60;;;1.50;;
70683;SDS011;58263;48.146;11.440;2024-03-25T00:05:19;1.67;;;0.90;;
70683;SDS011;58263;48.146;11.440;2024-03-25T00:07:51;1.60;;;1.50;;
70683;SDS011;58263;48.146;11.440;2024-03-25T00:10:17;2.65;;;1.88;;
70683;SDS011;58263;48.146;11.440;2024-03-25T00:12:42;3.17;;;1.60;;
70683;SDS011;58263;48.146;11.440;2024-03-25T00:15:08;3.40;;;1.63;;
70683;SDS011;58263;48.146;11.440;2024-03-25T00:17:34;3.15;;;1.60;;
70683;SDS011;58263;48.146;11.440;2024-03-25T00:19:59;5.67;;;1.90;;
70683;SDS011;58263;48.146;11.440;2024-03-25T00:22:24;3.83;;;1.57;;
70683;SDS011;58263;48.146;11.440;2024-03-25T00:24:50;1.50;;;1.40;;
70683;SDS011;58263;48.146;11.440;2024-03-25T00:27:16;2.90;;;1.70;;
70683;SDS011;58263;48.146;11.440;2024-03-25T00:29:42;2.13;;;1.52;;
70683;SDS011;58263;48.146;11.440;2024-03-25T00:32:08;3.13;;;1.30;;
70683;SDS011;58263;48.146;11.440;2024-03-25T00:34:34;3.35;;;1.60;;
70683;SDS011;58263;48.146;11.440;2024-03-25T00:36:59;4.32;;;1.65;;
70683;SDS011;58263;48.146;11.440;2024-03-25T00:39:25;1.65;;;1.52;;
70683;SDS011;58263;48.146;11.440;2024-03-25T00:41:51;2.78;;;1.65;;
70683;SDS011;58263;48.146;11.440;2024-03-25T00:44:17;2.83;;;1.85;;
70683;SDS011;58263;48.146;11.440;2024-03-25T00:46:42;2.87;;;1.63;;
70683;SDS011;58263;48.146;11.440;2024-03-25T00:49:08;2.95;;;1.58;;
70683;SDS011;58263;48.146;11.440;2024-03-25T00:51:34;2.95;;;1.40;;
70683;SDS011;58263;48.146;11.440;2024-03-25T00:54:00;2.17;;;1.67;;
70683;SDS011;58263;48.146;11.440;2024-03-25T00:56:25;4.53;;;1.67;;
70683;SDS011;58263;48.146;11.440;2024-03-25T00:58:51;1.87;;;1.40;;
70683;SDS011;58263;48.146;11.440;2024-03-25T01:01:16;2.10;;;1.63;;
70683;SDS011;58263;48.146;11.440;2024-03-25T01:03:41;1.43;;;1.20;;
70683;SDS011;58263;48.146;11.440;2024-03-25T01:06:07;1.30;;;1.20;;
70683;SDS011;58263;48.146;11.440;2024-03-25T01:08:32;4.70;;;1.77;;
70683;SDS011;58263;48.146;11.440;2024-03-25T01:10:58;2.67;;;1.70;;
70683;SDS011;58263;48.146;11.440;2024-03-25T01:13:23;2.03;;;1.27;;
70683;SDS011;58263;48.146;11.440;2024-03-25T01:15:48;1.17;;;1.17;;
70683;SDS011;58263;48.146;11.440;2024-03-25T01:18:13;1.40;;;1.30;;
70683;SDS011;58263;48.146;11.440;2024-03-25T01:20:39;3.17;;;1.27;;
70683;SDS011;58263;48.146;11.440;2024-03-25T01:23:04;1.43;;;1.33;;
70683;SDS011;58263;48.146;11.440;2024-03-25T01:25:30;1.90;;;1.45;;
70683;SDS011;58263;48.146;11.440;2024-03-25T01:27:55;1.52;;;1.42;;
70683;SDS011;58263;48.146;11.440;2024-03-25T01:30:20;2.30;;;1.47;;
70683;SDS011;58263;48.146;11.440;2024-03-25T01:32:46;3.13;;;1.20;;
70683;SDS011;58263;48.146;11.440;2024-03-25T01:35:15;6.03;;;1.58;;
70683;SDS011;58263;48.146;11.440;2024-03-25T01:37:40;1.83;;;1.60;;
70683;SDS011;58263;48.146;11.440;2024-03-25T01:40:06;2.83;;;1.63;;
70683;SDS011;58263;48.146;11.440;2024-03-25T01:42:32;2.05;;;1.27;;
70683;SDS011;58263;48.146;11.440;2024-03-25T01:44:57;1.83;;;1.20;;
70683;SDS011;58263;48.146;11.440;2024-03-25T01:47:23;1.45;;;1.35;;
70683;SDS011;58263;48.146;11.440;2024-03-25T01:49:49;2.95;;;1.50;;
70683;SDS011;58263;48.146;11.440;2024-03-25T01:52:18;1.52;;;1.40;;
70683;SDS011;58263;48.146;11.440;2024-03-25T01:54:44;1.33;;;0.85;;
70683;SDS011;58263;48.146;11.440;2024-03-25T01:57:09;1.20;;;0.93;;
70683;SDS011;58263;48.146;11.440;2024-03-25T01:59:35;5.25;;;1.88;;
70683;SDS011;58263;48.146;11.440;2024-03-25T02:02:00;2.20;;;1.55;;
70683;SDS011;58263;48.146;11.440;2024-03-25T02:04:26;1.45;;;1.30;;
70683;SDS011;58263;48.146;11.440;2024-03-25T02:06:52;1.52;;;1.42;;
70683;SDS011;58263;48.146;11.440;2024-03-25T02:09:18;2.47;;;1.98;;
70683;SDS011;58263;48.146;11.440;2024-03-25T02:11:44;1.40;;;1.30;;
70683;SDS011;58263;48.146;11.440;2024-03-25T02:14:09;1.98;;;1.40;;
70683;SDS011;58263;48.146;11.440;2024-03-25T02:16:34;2.27;;;1.50;;
70683;SDS011;58263;48.146;11.440;2024-03-25T02:19:00;1.50;;;1.40;;
70683;SDS011;58263;48.146;11.440;2024-03-25T02:21:25;4.10;;;1.40;;
70683;SDS011;58263;48.146;11.440;2024-03-25T02:23:50;4.70;;;1.92;;
70683;SDS011;58263;48.146;11.440;2024-03-25T02:26:21;2.97;;;1.73;;
70683;SDS011;58263;48.146;11.440;2024-03-25T02:28:48;1.70;;;1.45;;
70683;SDS011;58263;48.146;11.440;2024-03-25T02:31:13;2.60;;;1.80;;
70683;SDS011;58263;48.146;11.440;2024-03-25T02:33:38;2.50;;;1.60;;
70683;SDS011;58263;48.146;11.440;2024-03-25T02:36:04;1.87;;;1.40;;
70683;SDS011;58263;48.146;11.440;2024-03-25T02:38:29;1.63;;;1.52;;
70683;SDS011;58263;48.146;11.440;2024-03-25T02:40:57;1.48;;;1.33;;
70683;SDS011;58263;48.146;11.440;2024-03-25T02:43:22;1.65;;;1.52;;
70683;SDS011;58263;48.146;11.440;2024-03-25T02:45:49;3.47;;;1.77;;
70683;SDS011;58263;48.146;11.440;2024-03-25T02:48:14;2.83;;;1.50;;
70683;SDS011;58263;48.146;11.440;2024-03-25T02:50:39;2.03;;;1.83;;
70683;SDS011;58263;48.146;11.440;2024-03-25T02:53:05;2.60;;;1.90;;
70683;SDS011;58263;48.146;11.440;2024-03-25T02:55:31;1.83;;;1.48;;
70683;SDS011;58263;48.146;11.440;2024-03-25T02:57:56;1.50;;;1.40;;
70683;SDS011;58263;48.146;11.440;2024-03-25T03:00:22;2.90;;;1.83;;
70683;SDS011;58263;48.146;11.440;2024-03-25T03:02:47;1.53;;;1.43;;
70683;SDS011;58263;48.146;11.440;2024-03-25T03:05:12;1.20;;;1.10;;
70683;SDS011;58263;48.146;11.440;2024-03-25T03:07:37;2.00;;;1.33;;
70683;SDS011;58263;48.146;11.440;2024-03-25T03:10:03;2.67;;;1.70;;
70683;SDS011;58263;48.146;11.440;2024-03-25T03:12:28;3.10;;;2.72;;
70683;SDS011;58263;48.146;11.440;2024-03-25T03:14:53;3.27;;;2.20;;
70683;SDS011;58263;48.146;11.440;2024-03-25T03:17:18;3.10;;;1.60;;
70683;SDS011;58263;48.146;11.440;2024-03-25T03:19:44;2.13;;;1.40;;
70683;SDS011;58263;48.146;11.440;2024-03-25T03:22:10;2.30;;;1.38;;
70683;SDS011;58263;48.146;11.440;2024-03-25T03:24:35;3.27;;;1.80;;
70683;SDS011;58263;48.146;11.440;2024-03-25T03:27:00;2.27;;;1.70;;
70683;SDS011;58263;48.146;11.440;2024-03-25T03:29:26;3.80;;;1.63;;
70683;SDS011;58263;48.146;11.440;2024-03-25T03:31:51;1.77;;;1.37;;
70683;SDS011;58263;48.146;11.440;2024-03-25T03:34:16;2.00;;;1.67;;
70683;SDS011;58263;48.146;11.440;2024-03-25T03:36:41;2.20;;;1.73;;
70683;SDS011;58263;48.146;11.440;2024-03-25T03:39:07;1.57;;;1.47;;
70683;SDS011;58263;48.146;11.440;2024-03-25T03:41:34;4.60;;;1.77;;
70683;SDS011;58263;48.146;11.440;2024-03-25T03:43:59;3.57;;;1.67;;
70683;SDS011;58263;48.146;11.440;2024-03-25T03:46:24;2.53;;;1.70;;
70683;SDS011;58263;48.146;11.440;2024-03-25T03:48:50;2.17;;;1.90;;
70683;SDS011;58263;48.146;11.440;2024-03-25T03:51:15;1.87;;;1.60;;
70683;SDS011;58263;48.146;11.440;2024-03-25T03:53:40;1.63;;;1.50;;
70683;SDS011;58263;48.146;11.440;2024-03-25T03:56:06;1.70;;;1.60;;
70683;SDS011;58263;48.146;11.440;2024-03-25T03:58:31;1.35;;;1.33;;
70683;SDS011;58263;48.146;11.440;2024-03-25T04:00:57;2.85;;;1.73;;
70683;SDS011;58263;48.146;11.440;2024-03-25T04:03:22;2.50;;;1.67;;
70683;SDS011;58263;48.146;11.440;2024-03-25T04:05:48;5.47;;;2.17;;
70683;SDS011;58263;48.146;11.440;2024-03-25T04:08:13;1.92;;;1.70;;
70683;SDS011;58263;48.146;11.440;2024-03-25T04:10:39;3.15;;;1.55;;
70683;SDS011;58263;48.146;11.440;2024-03-25T04:13:05;1.65;;;1.25;;
70683;SDS011;58263;48.146;11.440;2024-03-25T04:15:38;1.45;;;1.35;;
70683;SDS011;58263;48.146;11.440;2024-03-25T04:18:04;4.25;;;2.05;;
70683;SDS011;58263;48.146;11.440;2024-03-25T04:20:39;2.60;;;1.30;;
70683;SDS011;58263;48.146;11.440;2024-03-25T04:25:32;2.28;;;1.33;;
70683;SDS011;58263;48.146;11.440;2024-03-25T04:27:58;2.40;;;1.58;;
70683;SDS011;58263;48.146;11.440;2024-03-25T04:30:23;1.50;;;1.40;;
70683;SDS011;58263;48.146;11.440;2024-03-25T04:32:48;2.10;;;1.90;;
70683;SDS011;58263;48.146;11.440;2024-03-25T04:35:13;1.80;;;1.70;;
70683;SDS011;58263;48.146;11.440;2024-03-25T04:37:39;1.60;;;1.50;;
70683;SDS011;58263;48.146;11.440;2024-03-25T04:40:04;1.63;;;1.53;;
70683;SDS011;58263;48.146;11.440;2024-03-25T04:42:30;3.83;;;1.42;;
70683;SDS011;58263;48.146;11.440;2024-03-25T04:44:55;1.50;;;1.40;;
70683;SDS011;58263;48.146;11.440;2024-03-25T04:47:20;2.27;;;1.97;;
70683;SDS011;58263;48.146;11.440;2024-03-25T04:49:45;2.67;;;1.83;;
70683;SDS011;58263;48.146;11.440;2024-03-25T04:52:14;9.03;;;3.13;;
70683;SDS011;58263;48.146;11.440;2024-03-25T04:54:48;2.90;;;2.20;;
70683;SDS011;58263;48.146;11.440;2024-03-25T04:57:13;4.47;;;1.63;;
70683;SDS011;58263;48.146;11.440;2024-03-25T04:59:38;1.60;;;1.50;;
70683;SDS011;58263;48.146;11.440;2024-03-25T05:02:04;1.80;;;1.30;;
70683;SDS011;58263;48.146;11.440;2024-03-25T05:04:29;2.75;;;1.58;;
70683;SDS011;58263;48.146;11.440;2024-03-25T05:06:54;3.67;;;1.37;;
70683;SDS011;58263;48.146;11.440;2024-03-25T05:09:20;2.33;;;1.40;;
70683;SDS011;58263;48.146;11.440;2024-03-25T05:11:45;1.70;;;1.60;;
70683;SDS011;58263;48.146;11.440;2024-03-25T05:14:10;1.83;;;1.40;;
70683;SDS011;58263;48.146;11.440;2024-03-25T05:16:35;2.53;;;2.00;;
70683;SDS011;58263;48.146;11.440;2024-03-25T05:19:01;1.88;;;1.48;;
70683;SDS011;58263;48.146;11.440;2024-03-25T05:21:27;3.72;;;2.22;;
70683;SDS011;58263;48.146;11.440;2024-03-25T05:23:52;1.90;;;1.80;;
70683;SDS011;58263;48.146;11.440;2024-03-25T05:26:17;2.07;;;1.40;;
70683;SDS011;58263;48.146;11.440;2024-03-25T05:28:42;1.57;;;1.20;;
70683;SDS011;58263;48.146;11.440;2024-03-25T05:31:08;3.10;;;1.67;;
70683;SDS011;58263;48.146;11.440;2024-03-25T05:33:34;2.92;;;1.77;;
70683;SDS011;58263;48.146;11.440;2024-03-25T05:36:00;3.70;;;1.80;;
70683;SDS011;58263;48.146;11.440;2024-03-25T05:38:26;5.85;;;1.67;;
70683;SDS011;58263;48.146;11.440;2024-03-25T05:40:52;2.00;;;1.35;;
70683;SDS011;58263;48.146;11.440;2024-03-25T05:43:17;1.85;;;1.52;;
70683;SDS011;58263;48.146;11.440;2024-03-25T05:45:49;2.17;;;1.93;;
70683;SDS011;58263;48.146;11.440;2024-03-25T05:48:18;2.33;;;1.70;;
70683;SDS011;58263;48.146;11.440;2024-03-25T05:50:44;1.60;;;1.50;;
70683;SDS011;58263;48.146;11.440;2024-03-25T05:53:09;2.10;;;1.67;;
70683;SDS011;58263;48.146;11.440;2024-03-25T05:55:34;2.67;;;1.80;;
70683;SDS011;58263;48.146;11.440;2024-03-25T05:58:00;1.93;;;1.73;;
70683;SDS011;58263;48.146;11.440;2024-03-25T06:00:25;2.03;;;1.60;;
70683;SDS011;58263;48.146;11.440;2024-03-25T06:02:51;1.77;;;1.67;;
70683;SDS011;58263;48.146;11.440;2024-03-25T06:05:18;2.17;;;1.20;;
70683;SDS011;58263;48.146;11.440;2024-03-25T06:07:43;2.63;;;1.70;;
70683;SDS011;58263;48.146;11.440;2024-03-25T06:10:08;1.77;;;1.57;;
70683;SDS011;58263;48.146;11.440;2024-03-25T06:12:34;1.83;;;1.73;;
70683;SDS011;58263;48.146;11.440;2024-03-25T06:14:59;5.03;;;1.80;;
70683;SDS011;58263;48.146;11.440;2024-03-25T06:17:25;4.25;;;1.83;;
70683;SDS011;58263;48.146;11.440;2024-03-25T06:19:50;2.20;;;1.90;;
70683;SDS011;58263;48.146;11.440;2024-03-25T06:22:16;2.42;;;1.70;;
70683;SDS011;58263;48.146;11.440;2024-03-25T06:24:42;2.43;;;1.73;;
70683;SDS011;58263;48.146;11.440;2024-03-25T06:27:08;2.50;;;1.58;;
70683;SDS011;58263;48.146;11.440;2024-03-25T06:29:33;1.67;;;1.57;;
70683;SDS011;58263;48.146;11.440;2024-03-25T06:32:00;3.00;;;1.85;;
70683;SDS011;58263;48.146;11.440;2024-03-25T06:34:44;3.50;;;1.90;;
70683;SDS011;58263;48.146;11.440;2024-03-25T06:37:09;2.00;;;1.40;;
70683;SDS011;58263;48.146;11.440;2024-03-25T06:39:34;3.53;;;1.87;;
70683;SDS011;58263;48.146;11.440;2024-03-25T06:41:59;1.60;;;1.50;;
70683;SDS011;58263;48.146;11.440;2024-03-25T06:44:25;4.57;;;2.53;;
70683;SDS011;58263;48.146;11.440;2024-03-25T06:46:50;8.30;;;3.63;;
70683;SDS011;58263;48.146;11.440;2024-03-25T06:49:15;2.00;;;1.63;;
70683;SDS011;58263;48.146;11.440;2024-03-25T06:51:40;3.23;;;1.63;;
70683;SDS011;58263;48.146;11.440;2024-03-25T06:54:06;6.23;;;3.20;;
70683;SDS011;58263;48.146;11.440;2024-03-25T06:56:31;8.50;;;3.30;;
70683;SDS011;58263;48.146;11.440;2024-03-25T06:58:56;4.20;;;1.83;;
70683;SDS011;58263;48.146;11.440;2024-03-25T07:01:21;3.93;;;1.93;;
70683;SDS011;58263;48.146;11.440;2024-03-25T07:03:46;3.43;;;1.90;;
70683;SDS011;58263;48.146;11.440;2024-03-25T07:06:12;3.08;;;2.03;;
70683;SDS011;58263;48.146;11.440;2024-03-25T07:08:38;2.20;;;2.00;;
70683;SDS011;58263;48.146;11.440;2024-03-25T07:11:03;3.83;;;2.67;;
70683;SDS011;58263;48.146;11.440;2024-03-25T07:13:28;3.03;;;1.85;;
70683;SDS011;58263;48.146;11.440;2024-03-25T07:15:54;3.30;;;1.83;;
70683;SDS011;58263;48.146;11.440;2024-03-25T07:18:20;4.28;;;2.35;;
70683;SDS011;58263;48.146;11.440;2024-03-25T07:20:45;4.10;;;2.47;;
70683;SDS011;58263;48.146;11.440;2024-03-25T07:23:11;3.83;;;2.20;;
70683;SDS011;58263;48.146;11.440;2024-03-25T07:25:36;6.23;;;2.90;;
70683;SDS011;58263;48.146;11.440;2024-03-25T07:28:02;10.52;;;4.78;;
70683;SDS011;58263;48.146;11.440;2024-03-25T07:30:28;8.10;;;4.20;;
70683;SDS011;58263;48.146;11.440;2024-03-25T07:32:54;11.88;;;4.47;;
70683;SDS011;58263;48.146;11.440;2024-03-25T07:35:20;6.97;;;2.60;;
70683;SDS011;58263;48.146;11.440;2024-03-25T07:37:46;2.42;;;2.08;;
70683;SDS011;58263;48.146;11.440;2024-03-25T07:40:11;6.07;;;2.40;;
70683;SDS011;58263;48.146;11.440;2024-03-25T07:42:37;5.75;;;2.13;;
70683;SDS011;58263;48.146;11.440;2024-03-25T07:45:03;3.78;;;2.35;;
70683;SDS011;58263;48.146;11.440;2024-03-25T07:47:30;6.60;;;3.47;;
70683;SDS011;58263;48.146;11.440;2024-03-25T07:49:55;5.93;;;2.40;;
70683;SDS011;58263;48.146;11.440;2024-03-25T07:52:20;2.00;;;1.80;;
70683;SDS011;58263;48.146;11.440;2024-03-25T07:54:45;3.60;;;2.07;;
70683;SDS011;58263;48.146;11.440;2024-03-25T07:57:11;2.80;;;1.90;;
70683;SDS011;58263;48.146;11.440;2024-03-25T07:59:36;3.00;;;1.43;;
70683;SDS011;58263;48.146;11.440;2024-03-25T08:02:01;5.10;;;1.77;;
70683;SDS011;58263;48.146;11.440;2024-03-25T08:04:26;5.57;;;3.50;;
70683;SDS011;58263;48.146;11.440;2024-03-25T08:06:52;3.30;;;1.80;;
70683;SDS011;58263;48.146;11.440;2024-03-25T08:09:17;3.27;;;2.00;;
70683;SDS011;58263;48.146;11.440;2024-03-25T08:11:42;8.07;;;2.90;;
70683;SDS011;58263;48.146;11.440;2024-03-25T08:16:36;5.77;;;2.50;;
70683;SDS011;58263;48.146;11.440;2024-03-25T08:19:01;2.07;;;1.83;;
70683;SDS011;58263;48.146;11.440;2024-03-25T08:21:27;2.55;;;1.38;;
70683;SDS011;58263;48.146;11.440;2024-03-25T08:23:52;5.78;;;2.17;;
70683;SDS011;58263;48.146;11.440;2024-03-25T08:26:18;6.87;;;4.10;;
70683;SDS011;58263;48.146;11.440;2024-03-25T08:28:43;3.43;;;2.07;;
70683;SDS011;58263;48.146;11.440;2024-03-25T08:31:08;5.67;;;2.13;;
70683;SDS011;58263;48.146;11.440;2024-03-25T08:33:33;4.57;;;2.40;;
70683;SDS011;58263;48.146;11.440;2024-03-25T08:35:59;1.77;;;1.53;;
70683;SDS011;58263;48.146;11.440;2024-03-25T08:38:24;4.27;;;1.80;;
70683;SDS011;58263;48.146;11.440;2024-03-25T08:40:50;5.70;;;2.30;;
70683;SDS011;58263;48.146;11.440;2024-03-25T08:43:16;3.95;;;2.28;;
70683;SDS011;58263;48.146;11.440;2024-03-25T08:45:42;5.10;;;2.53;;
70683;SDS011;58263;48.146;11.440;2024-03-25T08:48:07;3.20;;;2.45;;
70683;SDS011;58263;48.146;11.440;2024-03-25T08:50:33;4.20;;;1.90;;
70683;SDS011;58263;48.146;11.440;2024-03-25T08:52:58;2.87;;;2.20;;
70683;SDS011;58263;48.146;11.440;2024-03-25T08:55:23;2.77;;;1.97;;
70683;SDS011;58263;48.146;11.440;2024-03-25T08:57:48;2.13;;;1.97;;
70683;SDS011;58263;48.146;11.440;2024-03-25T09:00:14;4.13;;;1.80;;
70683;SDS011;58263;48.146;11.440;2024-03-25T09:02:39;4.47;;;2.00;;
70683;SDS011;58263;48.146;11.440;2024-03-25T09:05:05;3.30;;;1.90;;
70683;SDS011;58263;48.146;11.440;2024-03-25T09:07:32;2.92;;;1.50;;
70683;SDS011;58263;48.146;11.440;2024-03-25T09:09:57;3.63;;;1.55;;
70683;SDS011;58263;48.146;11.440;2024-03-25T09:12:41;1.65;;;1.55;;
70683;SDS011;58263;48.146;11.440;2024-03-25T09:15:06;6.37;;;2.60;;
70683;SDS011;58263;48.146;11.440;2024-03-25T09:17:31;5.78;;;2.35;;
70683;SDS011;58263;48.146;11.440;2024-03-25T09:19:57;5.43;;;2.23;;
70683;SDS011;58263;48.146;11.440;2024-03-25T09:22:22;7.57;;;3.50;;
70683;SDS011;58263;48.146;11.440;2024-03-25T09:24:48;6.00;;;2.92;;
70683;SDS011;58263;48.146;11.440;2024-03-25T09:27:14;4.63;;;3.35;;
70683;SDS011;58263;48.146;11.440;2024-03-25T09:29:40;2.25;;;1.95;;
70683;SDS011;58263;48.146;11.440;2024-03-25T09:32:06;3.75;;;2.03;;
70683;SDS011;58263;48.146;11.440;2024-03-25T09:34:32;3.63;;;1.80;;
70683;SDS011;58263;48.146;11.440;2024-03-25T09:36:57;8.07;;;4.33;;
70683;SDS011;58263;48.146;11.440;2024-03-25T09:39:22;2.47;;;1.97;;
70683;SDS011;58263;48.146;11.440;2024-03-25T09:41:48;1.40;;;1.30;;
70683;SDS011;58263;48.146;11.440;2024-03-25T09:44:19;2.38;;;1.27;;
70683;SDS011;58263;48.146;11.440;2024-03-25T09:46:49;6.15;;;3.10;;
70683;SDS011;58263;48.146;11.440;2024-03-25T09:49:14;2.65;;;1.50;;
70683;SDS011;58263;48.146;11.440;2024-03-25T09:51:40;3.33;;;2.40;;
70683;SDS011;58263;48.146;11.440;2024-03-25T09:54:05;1.95;;;1.55;;
70683;SDS011;58263;48.146;11.440;2024-03-25T09:56:31;2.40;;;1.70;;
70683;SDS011;58263;48.146;11.440;2024-03-25T09:58:56;4.20;;;1.25;;
70683;SDS011;58263;48.146;11.440;2024-03-25T10:01:22;1.50;;;1.15;;
70683;SDS011;58263;48.146;11.440;2024-03-25T10:03:48;2.47;;;1.45;;
70683;SDS011;58263;48.146;11.440;2024-03-25T10:06:13;4.53;;;1.67;;
70683;SDS011;58263;48.146;11.440;2024-03-25T10:08:38;2.40;;;1.40;;
70683;SDS011;58263;48.146;11.440;2024-03-25T10:11:03;3.90;;;1.33;;
70683;SDS011;58263;48.146;11.440;2024-03-25T10:13:29;1.60;;;1.37;;
70683;SDS011;58263;48.146;11.440;2024-03-25T10:15:54;1.87;;;1.20;;
70683;SDS011;58263;48.146;11.440;2024-03-25T10:18:20;1.85;;;1.30;;
70683;SDS011;58263;48.146;11.440;2024-03-25T10:20:49;1.30;;;1.20;;
70683;SDS011;58263;48.146;11.440;2024-03-25T10:23:14;2.42;;;1.30;;
70683;SDS011;58263;48.146;11.440;2024-03-25T10:25:40;2.33;;;1.33;;
70683;SDS011;58263;48.146;11.440;2024-03-25T10:28:05;6.63;;;1.50;;
70683;SDS011;58263;48.146;11.440;2024-03-25T10:30:31;6.35;;;1.75;;
70683;SDS011;58263;48.146;11.440;2024-03-25T10:33:06;3.13;;;1.40;;
70683;SDS011;58263;48.146;11.440;2024-03-25T10:35:32;1.60;;;1.50;;
70683;SDS011;58263;48.146;11.440;2024-03-25T10:38:03;2.85;;;1.08;;
70683;SDS011;58263;48.146;11.440;2024-03-25T10:40:39;2.22;;;1.33;;
70683;SDS011;58263;48.146;11.440;2024-03-25T10:43:08;3.60;;;1.42;;
70683;SDS011;58263;48.146;11.440;2024-03-25T10:45:45;2.60;;;1.30;;
70683;SDS011;58263;48.146;11.440;2024-03-25T10:48:17;2.17;;;1.20;;
70683;SDS011;58263;48.146;11.440;2024-03-25T10:50:45;4.38;;;1.42;;
70683;SDS011;58263;48.146;11.440;2024-03-25T10:53:11;3.83;;;1.10;;
70683;SDS011;58263;48.146;11.440;2024-03-25T10:55:37;2.05;;;1.30;;
70683;SDS011;58263;48.146;11.440;2024-03-25T10:58:05;1.65;;;1.10;;
70683;SDS011;58263;48.146;11.440;2024-03-25T11:00:32;2.13;;;1.23;;
70683;SDS011;58263;48.146;11.440;2024-03-25T11:02:59;1.95;;;1.38;;
70683;SDS011;58263;48.146;11.440;2024-03-25T11:05:25;3.30;;;1.42;;
70683;SDS011;58263;48.146;11.440;2024-03-25T11:07:52;1.77;;;1.30;;
70683;SDS011;58263;48.146;11.440;2024-03-25T11:10:17;1.40;;;1.30;;
70683;SDS011;58263;48.146;11.440;2024-03-25T11:12:42;2.60;;;1.40;;
70683;SDS011;58263;48.146;11.440;2024-03-25T11:15:08;1.42;;;1.25;;
70683;SDS011;58263;48.146;11.440;2024-03-25T11:17:34;1.60;;;1.50;;
70683;SDS011;58263;48.146;11.440;2024-03-25T11:20:06;1.17;;;1.17;;
70683;SDS011;58263;48.146;11.440;2024-03-25T11:22:48;1.65;;;1.40;;
70683;SDS011;58263;48.146;11.440;2024-03-25T11:25:15;2.22;;;1.40;;
70683;SDS011;58263;48.146;11.440;2024-03-25T11:27:42;3.50;;;1.30;;
70683;SDS011;58263;48.146;11.440;2024-03-25T11:30:08;3.20;;;1.60;;
70683;SDS011;58263;48.146;11.440;2024-03-25T11:32:53;2.05;;;1.40;;
70683;SDS011;58263;48.146;11.440;2024-03-25T11:35:20;1.55;;;1.38;;
70683;SDS011;58263;48.146;11.440;2024-03-25T11:37:45;3.22;;;1.70;;
70683;SDS011;58263;48.146;11.440;2024-03-25T11:40:11;3.58;;;2.25;;
70683;SDS011;58263;48.146;11.440;2024-03-25T11:42:39;1.55;;;1.27;;
70683;SDS011;58263;48.146;11.440;2024-03-25T11:45:05;1.80;;;1.70;;
70683;SDS011;58263;48.146;11.440;2024-03-25T11:47:32;2.17;;;1.60;;
70683;SDS011;58263;48.146;11.440;2024-03-25T11:49:58;2.08;;;1.17;;
70683;SDS011;58263;48.146;11.440;2024-03-25T11:52:23;2.03;;;1.30;;
70683;SDS011;58263;48.146;11.440;2024-03-25T11:54:55;2.60;;;1.07;;
70683;SDS011;58263;48.146;11.440;2024-03-25T11:57:21;1.30;;;1.15;;
70683;SDS011;58263;48.146;11.440;2024-03-25T11:59:47;1.50;;;1.40;;
70683;SDS011;58263;48.146;11.440;2024-03-25T12:02:14;2.40;;;1.30;;
70683;SDS011;58263;48.146;11.440;2024-03-25T12:04:43;2.70;;;1.30;;
70683;SDS011;58263;48.146;11.440;2024-03-25T12:07:12;1.92;;;1.40;;
70683;SDS011;58263;48.146;11.440;2024-03-25T12:09:37;2.05;;;1.27;;
70683;SDS011;58263;48.146;11.440;2024-03-25T12:12:21;1.75;;;1.10;;
70683;SDS011;58263;48.146;11.440;2024-03-25T12:14:47;2.22;;;1.08;;
70683;SDS011;58263;48.146;11.440;2024-03-25T12:17:12;2.05;;;1.02;;
70683;SDS011;58263;48.146;11.440;2024-03-25T12:19:38;1.53;;;1.00;;
70683;SDS011;58263;48.146;11.440;2024-03-25T12:22:04;3.07;;;1.50;;
70683;SDS011;58263;48.146;11.440;2024-03-25T12:24:29;2.33;;;1.60;;
70683;SDS011;58263;48.146;11.440;2024-03-25T12:26:54;2.83;;;1.33;;
70683;SDS011;58263;48.146;11.440;2024-03-25T12:29:20;2.10;;;1.27;;
70683;SDS011;58263;48.146;11.440;2024-03-25T12:31:57;1.67;;;1.23;;
70683;SDS011;58263;48.146;11.440;2024-03-25T12:34:25;2.63;;;1.20;;
70683;SDS011;58263;48.146;11.440;2024-03-25T12:36:51;2.05;;;0.98;;
70683;SDS011;58263;48.146;11.440;2024-03-25T12:39:17;4.00;;;1.30;;
70683;SDS011;58263;48.146;11.440;2024-03-25T12:41:43;2.05;;;1.45;;
70683;SDS011;58263;48.146;11.440;2024-03-25T12:44:11;1.63;;;1.20;;
70683;SDS011;58263;48.146;11.440;2024-03-25T12:46:37;1.40;;;1.15;;
70683;SDS011;58263;48.146;11.440;2024-03-25T12:49:03;1.40;;;1.25;;
70683;SDS011;58263;48.146;11.440;2024-03-25T12:51:29;1.85;;;1.17;;
70683;SDS011;58263;48.146;11.440;2024-03-25T12:53:54;1.50;;;1.10;;
70683;SDS011;58263;48.146;11.440;2024-03-25T12:56:19;1.90;;;1.20;;
70683;SDS011;58263;48.146;11.440;2024-03-25T12:58:44;1.93;;;1.40;;
70683;SDS011;58263;48.146;11.440;2024-03-25T13:01:10;1.23;;;1.10;;
70683;SDS011;58263;48.146;11.440;2024-03-25T13:03:35;1.37;;;1.00;;
70683;SDS011;58263;48.146;11.440;2024-03-25T13:06:00;3.13;;;1.10;;
70683;SDS011;58263;48.146;11.440;2024-03-25T13:08:25;1.13;;;1.10;;
70683;SDS011;58263;48.146;11.440;2024-03-25T13:10:51;3.10;;;1.60;;
70683;SDS011;58263;48.146;11.440;2024-03-25T13:13:16;2.72;;;1.52;;
70683;SDS011;58263;48.146;11.440;2024-03-25T13:15:41;1.97;;;1.27;;
70683;SDS011;58263;48.146;11.440;2024-03-25T13:18:08;4.00;;;1.30;;
70683;SDS011;58263;48.146;11.440;2024-03-25T13:20:33;1.70;;;1.30;;
70683;SDS011;58263;48.146;11.440;2024-03-25T13:22:59;1.07;;;1.03;;
70683;SDS011;58263;48.146;11.440;2024-03-25T13:25:25;1.30;;;0.93;;
70683;SDS011;58263;48.146;11.440;2024-03-25T13:27:52;1.45;;;1.30;;
70683;SDS011;58263;48.146;11.440;2024-03-25T13:30:17;4.23;;;1.37;;
70683;SDS011;58263;48.146;11.440;2024-03-25T13:32:42;1.63;;;1.00;;
70683;SDS011;58263;48.146;11.440;2024-03-25T13:35:08;2.43;;;1.53;;
70683;SDS011;58263;48.146;11.440;2024-03-25T13:37:33;1.43;;;1.13;;
70683;SDS011;58263;48.146;11.440;2024-03-25T13:39:58;1.03;;;0.93;;
70683;SDS011;58263;48.146;11.440;2024-03-25T13:42:24;1.00;;;0.90;;
70683;SDS011;58263;48.146;11.440;2024-03-25T13:44:49;1.13;;;0.97;;
70683;SDS011;58263;48.146;11.440;2024-03-25T13:47:14;1.70;;;1.07;;
70683;SDS011;58263;48.146;11.440;2024-03-25T13:49:39;2.33;;;1.10;;
70683;SDS011;58263;48.146;11.440;2024-03-25T13:52:05;2.57;;;1.00;;
70683;SDS011;58263;48.146;11.440;2024-03-25T13:54:30;2.73;;;1.20;;
70683;SDS011;58263;48.146;11.440;2024-03-25T13:56:55;1.20;;;0.88;;
70683;SDS011;58263;48.146;11.440;2024-03-25T13:59:21;1.65;;;1.20;;
70683;SDS011;58263;48.146;11.440;2024-03-25T14:01:47;4.37;;;1.50;;
70683;SDS011;58263;48.146;11.440;2024-03-25T14:04:12;1.10;;;1.00;;
70683;SDS011;58263;48.146;11.440;2024-03-25T14:06:37;1.07;;;1.03;;
70683;SDS011;58263;48.146;11.440;2024-03-25T14:09:04;1.80;;;1.17;;
70683;SDS011;58263;48.146;11.440;2024-03-25T14:11:29;2.78;;;1.30;;
70683;SDS011;58263;48.146;11.440;2024-03-25T14:13:55;1.20;;;1.10;;
70683;SDS011;58263;48.146;11.440;2024-03-25T14:16:20;3.03;;;1.40;;
70683;SDS011;58263;48.146;11.440;2024-03-25T14:18:46;1.43;;;1.10;;
70683;SDS011;58263;48.146;11.440;2024-03-25T14:21:11;1.97;;;1.17;;
70683;SDS011;58263;48.146;11.440;2024-03-25T14:23:36;1.17;;;1.07;;
70683;SDS011;58263;48.146;11.440;2024-03-25T14:26:01;1.47;;;1.10;;
70683;SDS011;58263;48.146;11.440;2024-03-25T14:28:27;3.50;;;1.20;;
70683;SDS011;58263;48.146;11.440;2024-03-25T14:30:52;1.00;;;0.93;;